sensor_id;sensor_type;location;lat;lon;timestamp;P1;durP1;ratioP1;P2;durP2;ratioP2
67715;SDS011;54508;43.238;25.306;2023-12-28T00:00:14;5.90;;;5.10;;
67715;SDS011;54508;43.238;25.306;2023-12-28T00:02:39;5.25;;;4.28;;
67715;SDS011;54508;43.238;25.306;2023-12-28T00:05:06;5.35;;;4.50;;
67715;SDS011;54508;43.238;25.306;2023-12-28T00:07:31;7.00;;;4.80;;
67715;SDS011;54508;43.238;25.306;2023-12-28T00:09:57;5.23;;;4.13;;
67715;SDS011;54508;43.238;25.306;2023-12-28T00:12:22;5.13;;;4.57;;
67715;SDS011;54508;43.238;25.306;2023-12-28T00:14:48;4.77;;;3.90;;
67715;SDS011;54508;43.238;25.306;2023-12-28T00:17:14;5.63;;;4.43;;
67715;SDS011;54508;43.238;25.306;2023-12-28T00:19:39;6.18;;;4.60;;
67715;SDS011;54508;43.238;25.306;2023-12-28T00:22:05;5.23;;;4.40;;
67715;SDS011;54508;43.238;25.306;2023-12-28T00:24:30;7.30;;;4.90;;
67715;SDS011;54508;43.238;25.306;2023-12-28T00:26:55;6.30;;;4.80;;
67715;SDS011;54508;43.238;25.306;2023-12-28T00:29:21;6.27;;;4.63;;
67715;SDS011;54508;43.238;25.306;2023-12-28T00:31:46;6.40;;;4.80;;
67715;SDS011;54508;43.238;25.306;2023-12-28T00:34:12;7.03;;;4.50;;
67715;SDS011;54508;43.238;25.306;2023-12-28T00:36:37;6.05;;;4.60;;
67715;SDS011;54508;43.238;25.306;2023-12-28T00:39:03;6.65;;;4.35;;
67715;SDS011;54508;43.238;25.306;2023-12-28T00:41:28;5.87;;;4.93;;
67715;SDS011;54508;43.238;25.306;2023-12-28T00:43:54;5.33;;;4.20;;
67715;SDS011;54508;43.238;25.306;2023-12-28T00:46:19;7.97;;;5.07;;
67715;SDS011;54508;43.238;25.306;2023-12-28T00:48:44;6.25;;;4.75;;
67715;SDS011;54508;43.238;25.306;2023-12-28T00:51:10;6.50;;;4.60;;
67715;SDS011;54508;43.238;25.306;2023-12-28T00:53:35;7.43;;;4.57;;
67715;SDS011;54508;43.238;25.306;2023-12-28T00:56:01;5.37;;;4.00;;
67715;SDS011;54508;43.238;25.306;2023-12-28T00:58:26;6.07;;;4.70;;
67715;SDS011;54508;43.238;25.306;2023-12-28T01:00:51;5.70;;;4.45;;
67715;SDS011;54508;43.238;25.306;2023-12-28T01:03:20;5.77;;;4.40;;
67715;SDS011;54508;43.238;25.306;2023-12-28T01:05:46;6.95;;;4.75;;
67715;SDS011;54508;43.238;25.306;2023-12-28T01:08:15;7.25;;;5.00;;
67715;SDS011;54508;43.238;25.306;2023-12-28T01:10:41;6.00;;;4.63;;
67715;SDS011;54508;43.238;25.306;2023-12-28T01:13:06;7.45;;;4.72;;
67715;SDS011;54508;43.238;25.306;2023-12-28T01:15:32;6.80;;;5.22;;
67715;SDS011;54508;43.238;25.306;2023-12-28T01:17:57;7.87;;;5.17;;
67715;SDS011;54508;43.238;25.306;2023-12-28T01:20:23;7.03;;;5.67;;
67715;SDS011;54508;43.238;25.306;2023-12-28T01:22:48;8.63;;;5.83;;
67715;SDS011;54508;43.238;25.306;2023-12-28T01:25:15;8.68;;;5.85;;
67715;SDS011;54508;43.238;25.306;2023-12-28T01:27:41;10.10;;;6.43;;
67715;SDS011;54508;43.238;25.306;2023-12-28T01:30:06;8.30;;;5.83;;
67715;SDS011;54508;43.238;25.306;2023-12-28T01:32:32;7.90;;;5.35;;
67715;SDS011;54508;43.238;25.306;2023-12-28T01:34:58;9.43;;;5.80;;
67715;SDS011;54508;43.238;25.306;2023-12-28T01:37:23;9.13;;;6.17;;
67715;SDS011;54508;43.238;25.306;2023-12-28T01:39:49;8.98;;;5.70;;
67715;SDS011;54508;43.238;25.306;2023-12-28T01:42:14;10.23;;;6.00;;
67715;SDS011;54508;43.238;25.306;2023-12-28T01:44:40;7.77;;;5.37;;
67715;SDS011;54508;43.238;25.306;2023-12-28T01:47:05;7.33;;;5.53;;
67715;SDS011;54508;43.238;25.306;2023-12-28T01:49:31;8.27;;;5.63;;
67715;SDS011;54508;43.238;25.306;2023-12-28T01:51:57;7.50;;;5.38;;
67715;SDS011;54508;43.238;25.306;2023-12-28T01:54:24;7.80;;;5.70;;
67715;SDS011;54508;43.238;25.306;2023-12-28T01:56:50;9.00;;;5.82;;
67715;SDS011;54508;43.238;25.306;2023-12-28T01:59:15;8.40;;;5.57;;
67715;SDS011;54508;43.238;25.306;2023-12-28T02:01:41;8.20;;;5.37;;
67715;SDS011;54508;43.238;25.306;2023-12-28T02:04:06;8.75;;;5.70;;
67715;SDS011;54508;43.238;25.306;2023-12-28T02:06:32;10.33;;;5.87;;
67715;SDS011;54508;43.238;25.306;2023-12-28T02:08:58;7.90;;;5.60;;
67715;SDS011;54508;43.238;25.306;2023-12-28T02:11:23;8.77;;;6.00;;
67715;SDS011;54508;43.238;25.306;2023-12-28T02:13:49;7.93;;;5.63;;
67715;SDS011;54508;43.238;25.306;2023-12-28T02:16:15;7.23;;;5.30;;
67715;SDS011;54508;43.238;25.306;2023-12-28T02:18:47;8.23;;;5.35;;
67715;SDS011;54508;43.238;25.306;2023-12-28T02:21:15;9.93;;;6.05;;
67715;SDS011;54508;43.238;25.306;2023-12-28T02:23:48;7.38;;;5.30;;
67715;SDS011;54508;43.238;25.306;2023-12-28T02:26:14;8.23;;;5.43;;
67715;SDS011;54508;43.238;25.306;2023-12-28T02:28:40;6.83;;;4.93;;
67715;SDS011;54508;43.238;25.306;2023-12-28T02:31:06;7.93;;;4.78;;
67715;SDS011;54508;43.238;25.306;2023-12-28T02:33:38;8.73;;;5.20;;
67715;SDS011;54508;43.238;25.306;2023-12-28T02:36:11;6.88;;;4.53;;
67715;SDS011;54508;43.238;25.306;2023-12-28T02:38:37;8.18;;;5.18;;
67715;SDS011;54508;43.238;25.306;2023-12-28T02:41:04;7.07;;;4.72;;
67715;SDS011;54508;43.238;25.306;2023-12-28T02:43:30;7.07;;;5.10;;
67715;SDS011;54508;43.238;25.306;2023-12-28T02:45:55;6.45;;;4.40;;
67715;SDS011;54508;43.238;25.306;2023-12-28T02:48:21;6.63;;;4.90;;
67715;SDS011;54508;43.238;25.306;2023-12-28T02:50:46;8.23;;;5.28;;
67715;SDS011;54508;43.238;25.306;2023-12-28T02:53:12;6.75;;;4.70;;
67715;SDS011;54508;43.238;25.306;2023-12-28T02:55:38;6.07;;;4.57;;
67715;SDS011;54508;43.238;25.306;2023-12-28T02:58:03;6.43;;;4.70;;
67715;SDS011;54508;43.238;25.306;2023-12-28T03:00:29;5.83;;;4.33;;
67715;SDS011;54508;43.238;25.306;2023-12-28T03:02:54;6.68;;;4.53;;
67715;SDS011;54508;43.238;25.306;2023-12-28T03:05:20;5.63;;;4.40;;
67715;SDS011;54508;43.238;25.306;2023-12-28T03:07:45;6.40;;;4.47;;
67715;SDS011;54508;43.238;25.306;2023-12-28T03:10:11;7.13;;;4.80;;
67715;SDS011;54508;43.238;25.306;2023-12-28T03:12:37;5.90;;;4.10;;
67715;SDS011;54508;43.238;25.306;2023-12-28T03:15:03;6.70;;;4.50;;
67715;SDS011;54508;43.238;25.306;2023-12-28T03:17:29;5.47;;;4.22;;
67715;SDS011;54508;43.238;25.306;2023-12-28T03:19:56;6.45;;;4.53;;
67715;SDS011;54508;43.238;25.306;2023-12-28T03:22:23;4.65;;;3.90;;
67715;SDS011;54508;43.238;25.306;2023-12-28T03:24:48;6.03;;;4.40;;
67715;SDS011;54508;43.238;25.306;2023-12-28T03:27:14;4.68;;;4.10;;
67715;SDS011;54508;43.238;25.306;2023-12-28T03:29:43;5.32;;;3.70;;
67715;SDS011;54508;43.238;25.306;2023-12-28T03:32:09;4.57;;;3.83;;
67715;SDS011;54508;43.238;25.306;2023-12-28T03:34:34;4.53;;;3.95;;
67715;SDS011;54508;43.238;25.306;2023-12-28T03:37:00;4.67;;;3.60;;
67715;SDS011;54508;43.238;25.306;2023-12-28T03:39:26;4.78;;;3.78;;
67715;SDS011;54508;43.238;25.306;2023-12-28T03:41:51;5.50;;;4.33;;
67715;SDS011;54508;43.238;25.306;2023-12-28T03:44:20;6.82;;;4.00;;
67715;SDS011;54508;43.238;25.306;2023-12-28T03:46:49;4.50;;;3.65;;
67715;SDS011;54508;43.238;25.306;2023-12-28T03:49:18;5.70;;;4.45;;
67715;SDS011;54508;43.238;25.306;2023-12-28T03:51:44;5.35;;;4.07;;
67715;SDS011;54508;43.238;25.306;2023-12-28T03:54:10;5.53;;;4.50;;
67715;SDS011;54508;43.238;25.306;2023-12-28T03:56:36;6.20;;;4.28;;
67715;SDS011;54508;43.238;25.306;2023-12-28T03:59:05;5.13;;;4.18;;
67715;SDS011;54508;43.238;25.306;2023-12-28T04:01:31;5.35;;;4.10;;
67715;SDS011;54508;43.238;25.306;2023-12-28T04:03:57;5.23;;;3.83;;
67715;SDS011;54508;43.238;25.306;2023-12-28T04:06:22;5.63;;;4.05;;
67715;SDS011;54508;43.238;25.306;2023-12-28T04:08:47;5.37;;;3.97;;
67715;SDS011;54508;43.238;25.306;2023-12-28T04:11:14;5.72;;;5.13;;
67715;SDS011;54508;43.238;25.306;2023-12-28T04:13:39;5.37;;;4.30;;
67715;SDS011;54508;43.238;25.306;2023-12-28T04:16:05;5.77;;;4.00;;
67715;SDS011;54508;43.238;25.306;2023-12-28T04:18:30;4.85;;;4.25;;
67715;SDS011;54508;43.238;25.306;2023-12-28T04:20:56;5.50;;;4.20;;
67715;SDS011;54508;43.238;25.306;2023-12-28T04:23:21;4.80;;;4.23;;
67715;SDS011;54508;43.238;25.306;2023-12-28T04:25:47;4.95;;;4.10;;
67715;SDS011;54508;43.238;25.306;2023-12-28T04:28:12;5.67;;;4.40;;
67715;SDS011;54508;43.238;25.306;2023-12-28T04:30:38;5.60;;;4.47;;
67715;SDS011;54508;43.238;25.306;2023-12-28T04:33:03;5.23;;;4.23;;
67715;SDS011;54508;43.238;25.306;2023-12-28T04:35:29;5.53;;;4.18;;
67715;SDS011;54508;43.238;25.306;2023-12-28T04:37:55;4.63;;;4.10;;
67715;SDS011;54508;43.238;25.306;2023-12-28T04:40:21;4.67;;;4.07;;
67715;SDS011;54508;43.238;25.306;2023-12-28T04:42:46;4.67;;;4.17;;
67715;SDS011;54508;43.238;25.306;2023-12-28T04:45:12;5.28;;;3.95;;
67715;SDS011;54508;43.238;25.306;2023-12-28T04:47:37;5.93;;;4.10;;
67715;SDS011;54508;43.238;25.306;2023-12-28T04:50:03;4.60;;;3.80;;
67715;SDS011;54508;43.238;25.306;2023-12-28T04:52:29;4.70;;;3.80;;
67715;SDS011;54508;43.238;25.306;2023-12-28T04:54:55;5.10;;;3.90;;
67715;SDS011;54508;43.238;25.306;2023-12-28T04:57:20;4.05;;;3.65;;
67715;SDS011;54508;43.238;25.306;2023-12-28T04:59:49;4.03;;;3.60;;
67715;SDS011;54508;43.238;25.306;2023-12-28T05:02:14;4.70;;;3.80;;
67715;SDS011;54508;43.238;25.306;2023-12-28T05:04:40;4.70;;;3.77;;
67715;SDS011;54508;43.238;25.306;2023-12-28T05:07:05;5.00;;;4.10;;
67715;SDS011;54508;43.238;25.306;2023-12-28T05:09:31;4.90;;;3.83;;
67715;SDS011;54508;43.238;25.306;2023-12-28T05:11:56;5.07;;;4.03;;
67715;SDS011;54508;43.238;25.306;2023-12-28T05:14:22;4.90;;;3.60;;
67715;SDS011;54508;43.238;25.306;2023-12-28T05:16:47;4.40;;;3.53;;
67715;SDS011;54508;43.238;25.306;2023-12-28T05:19:13;3.47;;;3.17;;
67715;SDS011;54508;43.238;25.306;2023-12-28T05:21:38;4.27;;;3.50;;
67715;SDS011;54508;43.238;25.306;2023-12-28T05:24:05;4.10;;;3.47;;
67715;SDS011;54508;43.238;25.306;2023-12-28T05:26:30;4.97;;;3.97;;
67715;SDS011;54508;43.238;25.306;2023-12-28T05:28:56;4.40;;;3.80;;
67715;SDS011;54508;43.238;25.306;2023-12-28T05:31:21;4.90;;;3.90;;
67715;SDS011;54508;43.238;25.306;2023-12-28T05:33:47;5.40;;;3.73;;
67715;SDS011;54508;43.238;25.306;2023-12-28T05:36:12;5.83;;;4.17;;
67715;SDS011;54508;43.238;25.306;2023-12-28T05:38:38;4.73;;;3.80;;
67715;SDS011;54508;43.238;25.306;2023-12-28T05:41:03;5.00;;;3.70;;
67715;SDS011;54508;43.238;25.306;2023-12-28T05:43:29;4.07;;;3.60;;
67715;SDS011;54508;43.238;25.306;2023-12-28T05:45:54;5.57;;;4.13;;
67715;SDS011;54508;43.238;25.306;2023-12-28T05:48:19;4.63;;;3.95;;
67715;SDS011;54508;43.238;25.306;2023-12-28T05:50:45;4.43;;;3.70;;
67715;SDS011;54508;43.238;25.306;2023-12-28T05:53:10;4.33;;;3.83;;
67715;SDS011;54508;43.238;25.306;2023-12-28T05:55:41;5.07;;;3.80;;
67715;SDS011;54508;43.238;25.306;2023-12-28T05:58:07;6.65;;;4.28;;
67715;SDS011;54508;43.238;25.306;2023-12-28T06:00:32;4.40;;;3.70;;
67715;SDS011;54508;43.238;25.306;2023-12-28T06:02:58;5.07;;;4.27;;
67715;SDS011;54508;43.238;25.306;2023-12-28T06:05:23;4.97;;;4.47;;
67715;SDS011;54508;43.238;25.306;2023-12-28T06:07:49;6.03;;;4.70;;
67715;SDS011;54508;43.238;25.306;2023-12-28T06:10:14;5.23;;;4.30;;
67715;SDS011;54508;43.238;25.306;2023-12-28T06:12:40;7.17;;;5.00;;
67715;SDS011;54508;43.238;25.306;2023-12-28T06:15:05;4.83;;;4.33;;
67715;SDS011;54508;43.238;25.306;2023-12-28T06:17:31;5.35;;;4.60;;
67715;SDS011;54508;43.238;25.306;2023-12-28T06:19:57;6.93;;;4.93;;
67715;SDS011;54508;43.238;25.306;2023-12-28T06:22:22;5.78;;;4.40;;
67715;SDS011;54508;43.238;25.306;2023-12-28T06:24:52;9.50;;;6.30;;
67715;SDS011;54508;43.238;25.306;2023-12-28T06:27:18;9.27;;;6.60;;
67715;SDS011;54508;43.238;25.306;2023-12-28T06:29:43;8.82;;;6.93;;
67715;SDS011;54508;43.238;25.306;2023-12-28T06:32:09;9.40;;;5.80;;
67715;SDS011;54508;43.238;25.306;2023-12-28T06:34:34;8.80;;;5.80;;
67715;SDS011;54508;43.238;25.306;2023-12-28T06:37:00;9.70;;;6.30;;
67715;SDS011;54508;43.238;25.306;2023-12-28T06:39:26;11.82;;;5.90;;
67715;SDS011;54508;43.238;25.306;2023-12-28T06:41:53;8.93;;;5.60;;
67715;SDS011;54508;43.238;25.306;2023-12-28T06:44:18;8.63;;;5.47;;
67715;SDS011;54508;43.238;25.306;2023-12-28T06:46:44;8.30;;;5.47;;
67715;SDS011;54508;43.238;25.306;2023-12-28T06:49:10;8.05;;;5.88;;
67715;SDS011;54508;43.238;25.306;2023-12-28T06:51:35;13.77;;;7.43;;
67715;SDS011;54508;43.238;25.306;2023-12-28T06:54:01;10.90;;;7.70;;
67715;SDS011;54508;43.238;25.306;2023-12-28T06:56:26;9.75;;;7.10;;
67715;SDS011;54508;43.238;25.306;2023-12-28T06:58:51;9.80;;;7.13;;
67715;SDS011;54508;43.238;25.306;2023-12-28T07:01:17;10.37;;;6.60;;
67715;SDS011;54508;43.238;25.306;2023-12-28T07:03:43;10.32;;;6.63;;
67715;SDS011;54508;43.238;25.306;2023-12-28T07:06:08;8.97;;;6.53;;
67715;SDS011;54508;43.238;25.306;2023-12-28T07:08:34;9.40;;;6.50;;
67715;SDS011;54508;43.238;25.306;2023-12-28T07:10:59;17.05;;;9.32;;
67715;SDS011;54508;43.238;25.306;2023-12-28T07:13:25;11.80;;;8.33;;
67715;SDS011;54508;43.238;25.306;2023-12-28T07:15:51;11.73;;;9.23;;
67715;SDS011;54508;43.238;25.306;2023-12-28T07:18:17;12.87;;;9.40;;
67715;SDS011;54508;43.238;25.306;2023-12-28T07:20:42;13.60;;;8.30;;
67715;SDS011;54508;43.238;25.306;2023-12-28T07:23:08;15.37;;;8.47;;
67715;SDS011;54508;43.238;25.306;2023-12-28T07:25:36;15.45;;;7.60;;
67715;SDS011;54508;43.238;25.306;2023-12-28T07:28:02;9.87;;;7.60;;
67715;SDS011;54508;43.238;25.306;2023-12-28T07:30:27;13.43;;;7.30;;
67715;SDS011;54508;43.238;25.306;2023-12-28T07:32:53;14.50;;;7.22;;
67715;SDS011;54508;43.238;25.306;2023-12-28T07:35:18;15.47;;;7.50;;
67715;SDS011;54508;43.238;25.306;2023-12-28T07:37:44;11.63;;;6.57;;
67715;SDS011;54508;43.238;25.306;2023-12-28T07:40:11;11.83;;;6.07;;
67715;SDS011;54508;43.238;25.306;2023-12-28T07:42:37;12.95;;;7.00;;
67715;SDS011;54508;43.238;25.306;2023-12-28T07:45:02;12.00;;;7.13;;
67715;SDS011;54508;43.238;25.306;2023-12-28T07:47:28;10.80;;;6.55;;
67715;SDS011;54508;43.238;25.306;2023-12-28T07:49:54;17.58;;;7.13;;
67715;SDS011;54508;43.238;25.306;2023-12-28T07:52:20;8.60;;;6.83;;
67715;SDS011;54508;43.238;25.306;2023-12-28T07:54:45;11.40;;;6.57;;
67715;SDS011;54508;43.238;25.306;2023-12-28T07:57:11;9.88;;;7.35;;
67715;SDS011;54508;43.238;25.306;2023-12-28T07:59:36;12.07;;;6.77;;
67715;SDS011;54508;43.238;25.306;2023-12-28T08:02:02;11.57;;;6.73;;
67715;SDS011;54508;43.238;25.306;2023-12-28T08:04:27;9.33;;;6.10;;
67715;SDS011;54508;43.238;25.306;2023-12-28T08:06:52;12.23;;;6.43;;
67715;SDS011;54508;43.238;25.306;2023-12-28T08:09:18;8.90;;;6.40;;
67715;SDS011;54508;43.238;25.306;2023-12-28T08:11:43;9.27;;;6.80;;
67715;SDS011;54508;43.238;25.306;2023-12-28T08:14:09;10.57;;;7.00;;
67715;SDS011;54508;43.238;25.306;2023-12-28T08:16:34;9.73;;;7.15;;
67715;SDS011;54508;43.238;25.306;2023-12-28T08:19:00;9.73;;;7.70;;
67715;SDS011;54508;43.238;25.306;2023-12-28T08:21:26;17.63;;;8.65;;
67715;SDS011;54508;43.238;25.306;2023-12-28T08:23:52;13.13;;;8.20;;
67715;SDS011;54508;43.238;25.306;2023-12-28T08:26:17;12.53;;;8.70;;
67715;SDS011;54508;43.238;25.306;2023-12-28T08:28:43;15.07;;;7.90;;
67715;SDS011;54508;43.238;25.306;2023-12-28T08:31:08;11.47;;;7.63;;
67715;SDS011;54508;43.238;25.306;2023-12-28T08:33:34;14.07;;;7.40;;
67715;SDS011;54508;43.238;25.306;2023-12-28T08:36:03;14.23;;;6.43;;
67715;SDS011;54508;43.238;25.306;2023-12-28T08:38:29;10.73;;;6.18;;
67715;SDS011;54508;43.238;25.306;2023-12-28T08:40:54;16.33;;;5.30;;
67715;SDS011;54508;43.238;25.306;2023-12-28T08:43:20;7.90;;;5.20;;
67715;SDS011;54508;43.238;25.306;2023-12-28T08:45:45;9.40;;;5.40;;
67715;SDS011;54508;43.238;25.306;2023-12-28T08:48:11;8.37;;;5.10;;
67715;SDS011;54508;43.238;25.306;2023-12-28T08:50:36;13.57;;;4.87;;
67715;SDS011;54508;43.238;25.306;2023-12-28T08:53:02;5.90;;;4.63;;
67715;SDS011;54508;43.238;25.306;2023-12-28T08:55:27;6.73;;;4.63;;
67715;SDS011;54508;43.238;25.306;2023-12-28T08:57:53;9.45;;;4.18;;
67715;SDS011;54508;43.238;25.306;2023-12-28T09:00:18;8.63;;;4.78;;
67715;SDS011;54508;43.238;25.306;2023-12-28T09:02:44;10.17;;;5.77;;
67715;SDS011;54508;43.238;25.306;2023-12-28T09:05:09;10.67;;;4.73;;
67715;SDS011;54508;43.238;25.306;2023-12-28T09:07:35;15.00;;;5.30;;
67715;SDS011;54508;43.238;25.306;2023-12-28T09:10:04;5.95;;;4.68;;
67715;SDS011;54508;43.238;25.306;2023-12-28T09:12:30;12.38;;;5.75;;
67715;SDS011;54508;43.238;25.306;2023-12-28T09:14:55;8.38;;;5.18;;
67715;SDS011;54508;43.238;25.306;2023-12-28T09:17:21;8.97;;;5.83;;
67715;SDS011;54508;43.238;25.306;2023-12-28T09:19:47;7.53;;;5.10;;
67715;SDS011;54508;43.238;25.306;2023-12-28T09:22:12;6.77;;;5.40;;
67715;SDS011;54508;43.238;25.306;2023-12-28T09:24:38;8.07;;;5.40;;
67715;SDS011;54508;43.238;25.306;2023-12-28T09:27:03;7.38;;;5.00;;
67715;SDS011;54508;43.238;25.306;2023-12-28T09:29:29;10.33;;;5.10;;
67715;SDS011;54508;43.238;25.306;2023-12-28T09:31:54;6.20;;;5.00;;
67715;SDS011;54508;43.238;25.306;2023-12-28T09:34:20;7.07;;;4.73;;
67715;SDS011;54508;43.238;25.306;2023-12-28T09:36:45;7.82;;;4.72;;
67715;SDS011;54508;43.238;25.306;2023-12-28T09:39:11;6.97;;;4.50;;
67715;SDS011;54508;43.238;25.306;2023-12-28T09:41:39;8.35;;;4.95;;
67715;SDS011;54508;43.238;25.306;2023-12-28T09:44:07;4.70;;;3.72;;
67715;SDS011;54508;43.238;25.306;2023-12-28T09:46:35;4.00;;;3.60;;
67715;SDS011;54508;43.238;25.306;2023-12-28T09:49:01;7.00;;;4.13;;
67715;SDS011;54508;43.238;25.306;2023-12-28T09:51:27;84.88;;;10.27;;
67715;SDS011;54508;43.238;25.306;2023-12-28T09:53:53;70.68;;;8.40;;
67715;SDS011;54508;43.238;25.306;2023-12-28T09:56:19;54.60;;;8.47;;
67715;SDS011;54508;43.238;25.306;2023-12-28T09:58:44;33.65;;;6.15;;
67715;SDS011;54508;43.238;25.306;2023-12-28T10:01:14;21.17;;;6.10;;
67715;SDS011;54508;43.238;25.306;2023-12-28T10:03:39;29.73;;;5.97;;
67715;SDS011;54508;43.238;25.306;2023-12-28T10:06:05;18.17;;;4.93;;
67715;SDS011;54508;43.238;25.306;2023-12-28T10:08:30;13.70;;;4.40;;
67715;SDS011;54508;43.238;25.306;2023-12-28T10:10:56;18.50;;;4.30;;
67715;SDS011;54508;43.238;25.306;2023-12-28T10:13:24;12.25;;;4.05;;
67715;SDS011;54508;43.238;25.306;2023-12-28T10:15:50;11.65;;;3.60;;
67715;SDS011;54508;43.238;25.306;2023-12-28T10:18:19;10.80;;;4.33;;
67715;SDS011;54508;43.238;25.306;2023-12-28T10:20:54;6.93;;;3.30;;
67715;SDS011;54508;43.238;25.306;2023-12-28T10:23:19;9.85;;;3.17;;
67715;SDS011;54508;43.238;25.306;2023-12-28T10:25:46;9.17;;;3.03;;
67715;SDS011;54508;43.238;25.306;2023-12-28T10:28:12;5.75;;;3.00;;
67715;SDS011;54508;43.238;25.306;2023-12-28T10:30:38;6.10;;;3.37;;
67715;SDS011;54508;43.238;25.306;2023-12-28T10:33:05;4.65;;;3.47;;
67715;SDS011;54508;43.238;25.306;2023-12-28T10:35:31;12.23;;;6.18;;
67715;SDS011;54508;43.238;25.306;2023-12-28T10:37:56;5.80;;;4.03;;
67715;SDS011;54508;43.238;25.306;2023-12-28T10:40:25;9.60;;;5.03;;
67715;SDS011;54508;43.238;25.306;2023-12-28T10:42:55;6.72;;;4.90;;
67715;SDS011;54508;43.238;25.306;2023-12-28T10:45:25;5.65;;;4.90;;
67715;SDS011;54508;43.238;25.306;2023-12-28T10:47:57;5.60;;;4.80;;
67715;SDS011;54508;43.238;25.306;2023-12-28T10:50:28;9.82;;;4.75;;
67715;SDS011;54508;43.238;25.306;2023-12-28T10:52:56;9.23;;;4.43;;
67715;SDS011;54508;43.238;25.306;2023-12-28T10:55:33;10.93;;;4.22;;
67715;SDS011;54508;43.238;25.306;2023-12-28T10:58:10;6.35;;;4.25;;
67715;SDS011;54508;43.238;25.306;2023-12-28T11:00:43;9.43;;;4.15;;
67715;SDS011;54508;43.238;25.306;2023-12-28T11:03:18;6.03;;;3.70;;
67715;SDS011;54508;43.238;25.306;2023-12-28T11:05:49;5.82;;;3.13;;
67715;SDS011;54508;43.238;25.306;2023-12-28T11:08:15;4.72;;;3.40;;
67715;SDS011;54508;43.238;25.306;2023-12-28T11:10:41;5.20;;;3.35;;
67715;SDS011;54508;43.238;25.306;2023-12-28T11:13:07;8.10;;;3.30;;
67715;SDS011;54508;43.238;25.306;2023-12-28T11:15:33;7.03;;;3.80;;
67715;SDS011;54508;43.238;25.306;2023-12-28T11:18:00;10.27;;;3.85;;
67715;SDS011;54508;43.238;25.306;2023-12-28T11:20:25;9.70;;;5.70;;
67715;SDS011;54508;43.238;25.306;2023-12-28T11:22:51;14.10;;;7.03;;
67715;SDS011;54508;43.238;25.306;2023-12-28T11:25:17;9.23;;;6.15;;
67715;SDS011;54508;43.238;25.306;2023-12-28T11:27:44;12.75;;;6.68;;
67715;SDS011;54508;43.238;25.306;2023-12-28T11:30:11;8.43;;;6.22;;
67715;SDS011;54508;43.238;25.306;2023-12-28T11:32:38;13.10;;;6.00;;
67715;SDS011;54508;43.238;25.306;2023-12-28T11:35:12;10.52;;;5.05;;
67715;SDS011;54508;43.238;25.306;2023-12-28T11:37:42;10.15;;;5.25;;
67715;SDS011;54508;43.238;25.306;2023-12-28T11:40:12;9.70;;;5.45;;
67715;SDS011;54508;43.238;25.306;2023-12-28T11:42:50;10.93;;;5.28;;
67715;SDS011;54508;43.238;25.306;2023-12-28T11:45:17;10.15;;;4.63;;
67715;SDS011;54508;43.238;25.306;2023-12-28T11:47:43;13.47;;;4.47;;
67715;SDS011;54508;43.238;25.306;2023-12-28T11:50:09;11.90;;;4.25;;
67715;SDS011;54508;43.238;25.306;2023-12-28T11:52:36;5.90;;;4.18;;
67715;SDS011;54508;43.238;25.306;2023-12-28T11:55:02;9.70;;;3.78;;
67715;SDS011;54508;43.238;25.306;2023-12-28T11:57:27;9.75;;;3.70;;
67715;SDS011;54508;43.238;25.306;2023-12-28T11:59:57;10.25;;;4.55;;
67715;SDS011;54508;43.238;25.306;2023-12-28T12:02:23;24.67;;;5.10;;
67715;SDS011;54508;43.238;25.306;2023-12-28T12:04:49;11.20;;;4.40;;
67715;SDS011;54508;43.238;25.306;2023-12-28T12:07:15;8.75;;;4.75;;
67715;SDS011;54508;43.238;25.306;2023-12-28T12:09:40;11.10;;;4.33;;
67715;SDS011;54508;43.238;25.306;2023-12-28T12:12:06;12.33;;;4.37;;
67715;SDS011;54508;43.238;25.306;2023-12-28T12:14:33;10.93;;;3.95;;
67715;SDS011;54508;43.238;25.306;2023-12-28T12:16:59;7.90;;;3.78;;
67715;SDS011;54508;43.238;25.306;2023-12-28T12:19:25;6.40;;;3.50;;
67715;SDS011;54508;43.238;25.306;2023-12-28T12:21:57;7.95;;;3.33;;
67715;SDS011;54508;43.238;25.306;2023-12-28T12:24:23;8.90;;;3.50;;
67715;SDS011;54508;43.238;25.306;2023-12-28T12:26:52;4.97;;;3.10;;
67715;SDS011;54508;43.238;25.306;2023-12-28T12:29:18;6.15;;;3.30;;
67715;SDS011;54508;43.238;25.306;2023-12-28T12:31:44;6.25;;;3.30;;
67715;SDS011;54508;43.238;25.306;2023-12-28T12:34:12;5.90;;;3.50;;
67715;SDS011;54508;43.238;25.306;2023-12-28T12:36:40;9.60;;;3.42;;
67715;SDS011;54508;43.238;25.306;2023-12-28T12:39:06;6.47;;;3.40;;
67715;SDS011;54508;43.238;25.306;2023-12-28T12:41:34;8.33;;;3.20;;
67715;SDS011;54508;43.238;25.306;2023-12-28T12:44:00;5.80;;;3.40;;
67715;SDS011;54508;43.238;25.306;2023-12-28T12:46:26;7.25;;;4.10;;
67715;SDS011;54508;43.238;25.306;2023-12-28T12:48:58;8.47;;;3.27;;
67715;SDS011;54508;43.238;25.306;2023-12-28T12:51:25;8.50;;;3.40;;
67715;SDS011;54508;43.238;25.306;2023-12-28T12:53:55;7.25;;;3.35;;
67715;SDS011;54508;43.238;25.306;2023-12-28T12:56:30;7.40;;;3.40;;
67715;SDS011;54508;43.238;25.306;2023-12-28T12:58:57;6.50;;;3.45;;
67715;SDS011;54508;43.238;25.306;2023-12-28T13:01:23;6.38;;;3.50;;
67715;SDS011;54508;43.238;25.306;2023-12-28T13:03:49;5.43;;;3.85;;
67715;SDS011;54508;43.238;25.306;2023-12-28T13:06:15;6.15;;;4.35;;
67715;SDS011;54508;43.238;25.306;2023-12-28T13:08:41;11.37;;;4.60;;
67715;SDS011;54508;43.238;25.306;2023-12-28T13:11:06;5.90;;;4.20;;
67715;SDS011;54508;43.238;25.306;2023-12-28T13:13:32;6.30;;;3.77;;
67715;SDS011;54508;43.238;25.306;2023-12-28T13:15:58;8.82;;;3.83;;
67715;SDS011;54508;43.238;25.306;2023-12-28T13:18:24;4.20;;;3.40;;
67715;SDS011;54508;43.238;25.306;2023-12-28T13:20:49;4.43;;;3.30;;
67715;SDS011;54508;43.238;25.306;2023-12-28T13:23:15;6.05;;;4.22;;
67715;SDS011;54508;43.238;25.306;2023-12-28T13:25:40;6.77;;;3.10;;
67715;SDS011;54508;43.238;25.306;2023-12-28T13:28:06;4.07;;;2.73;;
67715;SDS011;54508;43.238;25.306;2023-12-28T13:30:31;6.03;;;2.58;;
67715;SDS011;54508;43.238;25.306;2023-12-28T13:32:57;5.13;;;3.37;;
67715;SDS011;54508;43.238;25.306;2023-12-28T13:35:23;5.47;;;3.00;;
67715;SDS011;54508;43.238;25.306;2023-12-28T13:37:48;5.80;;;2.83;;
67715;SDS011;54508;43.238;25.306;2023-12-28T13:40:14;5.85;;;3.30;;
67715;SDS011;54508;43.238;25.306;2023-12-28T13:42:40;4.77;;;3.13;;
67715;SDS011;54508;43.238;25.306;2023-12-28T13:45:09;7.75;;;3.97;;
67715;SDS011;54508;43.238;25.306;2023-12-28T13:47:34;10.97;;;8.30;;
67715;SDS011;54508;43.238;25.306;2023-12-28T13:50:00;11.65;;;8.40;;
67715;SDS011;54508;43.238;25.306;2023-12-28T13:52:25;13.73;;;8.17;;
67715;SDS011;54508;43.238;25.306;2023-12-28T13:54:51;14.43;;;8.00;;
67715;SDS011;54508;43.238;25.306;2023-12-28T13:57:16;17.37;;;7.47;;
67715;SDS011;54508;43.238;25.306;2023-12-28T13:59:41;9.25;;;6.20;;
67715;SDS011;54508;43.238;25.306;2023-12-28T14:02:07;12.27;;;6.63;;
67715;SDS011;54508;43.238;25.306;2023-12-28T14:04:32;8.27;;;5.93;;
67715;SDS011;54508;43.238;25.306;2023-12-28T14:06:58;22.07;;;6.00;;
67715;SDS011;54508;43.238;25.306;2023-12-28T14:09:23;8.07;;;5.00;;
67715;SDS011;54508;43.238;25.306;2023-12-28T14:11:49;10.80;;;4.70;;
67715;SDS011;54508;43.238;25.306;2023-12-28T14:14:14;8.53;;;4.87;;
67715;SDS011;54508;43.238;25.306;2023-12-28T14:16:40;10.80;;;5.07;;
67715;SDS011;54508;43.238;25.306;2023-12-28T14:19:06;8.90;;;4.90;;
67715;SDS011;54508;43.238;25.306;2023-12-28T14:21:35;13.47;;;4.47;;
67715;SDS011;54508;43.238;25.306;2023-12-28T14:24:02;8.52;;;4.00;;